Time;durP1;ratioP1;P1;durP2;ratioP2;P2;SDS_P1;SDS_P2;PMS_P1;PMS_P2;Temp;Humidity;BMP_temperature;BMP_pressure;BME280_temperature;BME280_humidity;BME280_pressure;Samples;Min_cycle;Max_cycle;Signal;HPM_P1;HPM_P2
2021/06/26 00:02:00;;;;;;;;;;;;;;;18.94;78.01;97179.29;1711359;82;20128;-76
2021/06/26 00:04:26;;;;;;;;;;;;;;;18.93;77.84;97178.95;1717112;82;20109;-76
2021/06/26 00:06:52;;;;;;;;;;;;;;;18.91;77.70;97182.78;1715992;82;20113;-77
2021/06/26 00:09:19;;;;;;;;;;;;;;;18.88;77.75;97182.63;1675206;83;20377;-76
2021/06/26 00:11:45;;;;;;;;;;;;;;;18.85;78.27;97183.78;1693756;84;20399;-77
2021/06/26 00:14:12;;;;;;;;;;;;;;;18.82;78.42;97168.13;1717101;82;20149;-78
2021/06/26 00:16:38;;;;;;;;;;;;;;;18.81;77.31;97181.16;1715953;83;20110;-77
2021/06/26 00:19:04;;;;;;;;;;;;;;;18.82;77.79;97187.31;1705829;83;20084;-77
2021/06/26 00:21:30;;;;;;;;;;;;;;;18.83;78.51;97187.16;1687035;84;20406;-80
2021/06/26 00:23:56;;;;;;;;;;;;;;;18.84;77.36;97178.63;1688149;82;20111;-76
2021/06/26 00:26:22;;;;;;;;;;;;;;;18.85;77.69;97182.97;1689428;82;20095;-78
2021/06/26 00:28:48;;;;;;;;;;;;;;;18.88;77.44;97197.32;1687302;84;20124;-78
2021/06/26 00:31:14;;;;;;;;;;;;;;;18.87;77.60;97206.33;1687422;84;20416;-77
2021/06/26 00:33:41;;;;;;;;;;;;;;;18.83;77.52;97206.34;1704546;82;20418;-79
2021/06/26 00:36:07;;;;;;;;;;;;;;;18.85;77.89;97205.16;1715817;84;20097;-78
2021/06/26 00:38:33;;;;;;;;;;;;;;;18.88;77.57;97197.32;1715545;83;20110;-78
2021/06/26 00:40:59;;;;;;;;;;;;;;;18.87;77.50;97191.13;1697569;83;20100;-78
2021/06/26 00:43:25;;;;;;;;;;;;;;;18.86;78.18;97189.98;1687489;84;20120;-77
2021/06/26 00:45:51;;;;;;;;;;;;;;;18.78;77.86;97186.83;1708273;82;20101;-77
2021/06/26 00:48:17;;;;;;;;;;;;;;;18.79;77.85;97189.02;1716117;82;20381;-76
2021/06/26 00:50:43;;;;;;;;;;;;;;;18.80;77.75;97191.50;1687303;84;20408;-76
2021/06/26 00:53:09;;;;;;;;;;;;;;;18.79;77.63;97180.48;1687382;85;20103;-76
2021/06/26 00:55:35;;;;;;;;;;;;;;;18.78;77.74;97188.16;1687586;84;20125;-80
2021/06/26 00:58:02;;;;;;;;;;;;;;;18.75;78.19;97194.36;1685950;83;20101;-77
2021/06/26 01:00:30;;;;;;;;;;;;;;;18.74;78.76;97190.87;1715289;83;20117;-77
2021/06/26 01:02:59;;;;;;;;;;;;;;;18.71;78.22;97169.33;1715263;83;20138;-79
2021/06/26 01:05:25;;;;;;;;;;;;;;;18.66;77.82;97170.84;1715806;82;20133;-77
2021/06/26 01:07:53;;;;;;;;;;;;;;;18.64;77.90;97163.54;1707951;83;20103;-79
2021/06/26 01:10:20;;;;;;;;;;;;;;;18.58;78.51;97163.20;1687355;85;20100;-78
2021/06/26 01:12:47;;;;;;;;;;;;;;;18.57;78.79;97160.72;1712011;82;20123;-78
2021/06/26 01:15:15;;;;;;;;;;;;;;;18.55;77.95;97156.90;1734712;82;20145;-79
2021/06/26 01:17:41;;;;;;;;;;;;;;;18.50;78.02;97157.90;1687489;84;20124;-77
2021/06/26 01:20:09;;;;;;;;;;;;;;;18.45;78.28;97146.08;1742142;81;20123;-83
2021/06/26 01:22:42;;;;;;;;;;;;;;;18.42;78.49;97129.91;1745361;82;20144;-81
2021/06/26 01:25:05;;;;;;;;;;;;;;;18.40;78.73;97122.09;1744969;82;20115;-84
2021/06/26 01:27:31;;;;;;;;;;;;;;;18.39;78.04;97127.58;1745555;82;20139;-83
2021/06/26 01:29:57;;;;;;;;;;;;;;;18.39;78.25;97120.91;1745146;82;20107;-83
2021/06/26 01:32:23;;;;;;;;;;;;;;;18.37;78.49;97111.75;1689587;82;20135;-81
2021/06/26 01:34:49;;;;;;;;;;;;;;;18.34;78.44;97108.08;1704630;82;20091;-78
2021/06/26 01:37:15;;;;;;;;;;;;;;;18.25;77.80;97103.30;1745580;82;20405;-77
2021/06/26 01:39:41;;;;;;;;;;;;;;;18.17;78.06;97101.14;1706151;82;20400;-79
2021/06/26 01:42:10;;;;;;;;;;;;;;;18.16;78.54;97096.32;1695092;82;20146;-76
2021/06/26 01:44:36;;;;;;;;;;;;;;;18.15;78.23;97082.65;1743005;82;20107;-77
2021/06/26 01:47:07;;;;;;;;;;;;;;;18.15;78.36;97066.65;1687554;85;20116;-76
2021/06/26 01:49:36;;;;;;;;;;;;;;;18.13;78.55;97063.31;1696026;82;20094;-77
2021/06/26 01:52:03;;;;;;;;;;;;;;;18.09;78.60;97073.50;1745632;82;20163;-76
2021/06/26 01:54:30;;;;;;;;;;;;;;;18.04;79.21;97091.02;1739572;82;20085;-76
2021/06/26 01:56:58;;;;;;;;;;;;;;;18.03;78.82;97112.86;1716076;84;20387;-77
2021/06/26 01:59:24;;;;;;;;;;;;;;;18.01;79.05;97132.19;1691355;84;20113;-77
2021/06/26 02:01:50;;;;;;;;;;;;;;;18.00;78.98;97129.19;1715986;84;20375;-76
2021/06/26 02:04:16;;;;;;;;;;;;;;;18.01;79.03;97128.19;1716012;84;20395;-76
2021/06/26 02:06:42;;;;;;;;;;;;;;;17.98;78.81;97116.52;1727333;82;20436;-76
2021/06/26 02:09:08;;;;;;;;;;;;;;;17.98;78.88;97121.85;1745645;82;20127;-76
2021/06/26 02:11:35;;;;;;;;;;;;;;;17.98;79.34;97119.19;1745616;82;20107;-76
2021/06/26 02:14:01;;;;;;;;;;;;;;;17.98;79.29;97115.70;1697255;82;20381;-76
2021/06/26 02:16:27;;;;;;;;;;;;;;;17.95;78.87;97116.33;1715297;82;20387;-76
2021/06/26 02:18:53;;;;;;;;;;;;;;;17.88;79.18;97103.84;1716045;84;20406;-75
2021/06/26 02:21:20;;;;;;;;;;;;;;;17.92;79.29;97097.18;1704361;84;20405;-76
2021/06/26 02:23:46;;;;;;;;;;;;;;;17.90;79.33;97073.36;1687514;85;20392;-76
2021/06/26 02:26:12;;;;;;;;;;;;;;;17.91;79.35;97058.19;1713028;82;20114;-77
2021/06/26 02:28:38;;;;;;;;;;;;;;;17.91;79.75;97045.67;1715366;84;20085;-77
2021/06/26 02:31:04;;;;;;;;;;;;;;;17.94;79.62;97035.19;1732609;82;20092;-76
2021/06/26 02:33:30;;;;;;;;;;;;;;;17.95;79.29;97023.52;1744714;82;20131;-77
2021/06/26 02:35:57;;;;;;;;;;;;;;;17.87;79.54;97004.38;1744523;82;20384;-77
2021/06/26 02:38:23;;;;;;;;;;;;;;;17.76;79.16;96990.92;1744591;82;20143;-77
2021/06/26 02:40:49;;;;;;;;;;;;;;;17.61;78.60;96994.80;1744419;82;20111;-77
2021/06/26 02:43:15;;;;;;;;;;;;;;;17.58;79.10;96998.30;1724843;82;20096;-76
2021/06/26 02:45:41;;;;;;;;;;;;;;;17.60;79.29;96987.80;1686465;84;20408;-77
2021/06/26 02:48:07;;;;;;;;;;;;;;;17.55;79.76;96946.67;1695911;82;20400;-77
2021/06/26 02:50:33;;;;;;;;;;;;;;;17.43;79.86;96951.53;1714969;82;20142;-78
2021/06/26 02:52:59;;;;;;;;;;;;;;;17.44;80.13;96960.68;1714550;83;20106;-78
2021/06/26 02:55:26;;;;;;;;;;;;;;;17.49;79.85;96947.66;1737317;82;20104;-77
2021/06/26 02:57:52;;;;;;;;;;;;;;;17.46;79.81;96964.02;1744782;82;20107;-77
2021/06/26 03:00:19;;;;;;;;;;;;;;;17.53;80.55;96969.50;1714851;82;20140;-79
2021/06/26 03:02:45;;;;;;;;;;;;;;;17.63;80.27;96962.63;1686479;85;20136;-76
2021/06/26 03:05:11;;;;;;;;;;;;;;;17.76;80.66;96951.42;1686665;84;20136;-78
2021/06/26 03:07:37;;;;;;;;;;;;;;;17.84;80.16;96950.05;1686484;84;20120;-77
2021/06/26 03:10:04;;;;;;;;;;;;;;;17.89;79.99;96953.05;1687176;82;20481;-76
2021/06/26 03:12:30;;;;;;;;;;;;;;;18.02;80.23;96954.34;1715083;83;20448;-78
2021/06/26 03:14:56;;;;;;;;;;;;;;;18.04;80.08;96958.52;1715261;82;20382;-77
2021/06/26 03:17:22;;;;;;;;;;;;;;;18.14;80.06;96964.14;1715013;82;20114;-77
2021/06/26 03:19:48;;;;;;;;;;;;;;;18.24;79.86;96980.73;1715388;82;20090;-77
2021/06/26 03:22:14;;;;;;;;;;;;;;;18.31;80.03;96987.05;1715107;83;20094;-79
2021/06/26 03:24:40;;;;;;;;;;;;;;;18.40;79.80;96978.48;1715199;83;20133;-77
2021/06/26 03:27:07;;;;;;;;;;;;;;;18.50;79.91;96975.61;1715121;83;20105;-78
2021/06/26 03:29:33;;;;;;;;;;;;;;;18.55;79.34;96979.90;1717365;82;20121;-78
2021/06/26 03:31:59;;;;;;;;;;;;;;;18.63;79.65;96997.19;1721786;81;20402;-78
2021/06/26 03:34:25;;;;;;;;;;;;;;;18.68;79.09;97006.86;1716044;82;20101;-84
2021/06/26 03:36:51;;;;;;;;;;;;;;;18.68;78.96;97010.86;1715881;83;20419;-85
2021/06/26 03:39:17;;;;;;;;;;;;;;;18.60;78.09;97008.24;1715156;83;20501;-77
2021/06/26 03:41:43;;;;;;;;;;;;;;;18.48;78.47;97017.65;1715794;84;20138;-78
2021/06/26 03:44:09;;;;;;;;;;;;;;;18.45;79.59;97008.16;1690826;83;20107;-79
2021/06/26 03:46:36;;;;;;;;;;;;;;;18.18;78.28;97004.11;1705474;84;20106;-78
2021/06/26 03:49:03;;;;;;;;;;;;;;;18.06;78.64;97011.67;1715775;84;20102;-80
2021/06/26 03:51:30;;;;;;;;;;;;;;;18.15;79.23;97014.64;1718072;82;20129;-81
2021/06/26 03:53:56;;;;;;;;;;;;;;;18.28;79.04;97018.59;1745311;82;20107;-78
2021/06/26 03:56:22;;;;;;;;;;;;;;;18.38;78.87;97025.85;1745331;82;20420;-77
2021/06/26 03:58:48;;;;;;;;;;;;;;;18.63;78.39;97029.74;1741591;82;20388;-76
2021/06/26 04:01:14;;;;;;;;;;;;;;;19.11;78.13;97033.61;1706131;82;20407;-79
2021/06/26 04:03:40;;;;;;;;;;;;;;;19.74;76.61;97030.70;1716012;82;20375;-82
2021/06/26 04:06:06;;;;;;;;;;;;;;;20.22;76.55;97037.06;1711042;83;20108;-80
2021/06/26 04:08:33;;;;;;;;;;;;;;;20.49;72.44;97034.72;1687308;84;20112;-80
2021/06/26 04:10:59;;;;;;;;;;;;;;;20.67;70.12;97047.19;1701869;82;20106;-78
2021/06/26 04:13:25;;;;;;;;;;;;;;;20.72;73.39;97046.62;1715889;83;20102;-78
2021/06/26 04:15:51;;;;;;;;;;;;;;;20.74;73.21;97055.33;1715908;83;20105;-79
2021/06/26 04:18:18;;;;;;;;;;;;;;;20.58;71.15;97055.83;1724776;82;20100;-76
2021/06/26 04:20:44;;;;;;;;;;;;;;;20.54;71.37;97057.23;1745245;81;20408;-77
2021/06/26 04:23:10;;;;;;;;;;;;;;;20.67;67.94;97060.57;1745306;82;20108;-78
2021/06/26 04:25:37;;;;;;;;;;;;;;;21.12;72.21;97055.60;1742224;82;20111;-77
2021/06/26 04:28:08;;;;;;;;;;;;;;;21.77;69.44;97052.34;1704551;84;20106;-77
2021/06/26 04:30:36;;;;;;;;;;;;;;;22.21;65.53;97052.22;1714479;82;20134;-78
2021/06/26 04:33:04;;;;;;;;;;;;;;;22.60;70.92;97052.08;1713563;83;20169;-77
2021/06/26 04:35:32;;;;;;;;;;;;;;;23.12;64.31;97055.11;1714771;84;20431;-77
2021/06/26 04:37:58;;;;;;;;;;;;;;;23.38;65.78;97058.39;1693123;83;20369;-76
2021/06/26 04:40:24;;;;;;;;;;;;;;;23.84;66.13;97047.31;1695742;82;20382;-78
2021/06/26 04:42:52;;;;;;;;;;;;;;;24.54;63.70;97049.09;1745421;82;20111;-78
2021/06/26 04:45:19;;;;;;;;;;;;;;;25.33;66.18;97045.67;1745454;82;20092;-78
2021/06/26 04:47:46;;;;;;;;;;;;;;;26.00;62.23;97051.84;1745348;82;20147;-77
2021/06/26 04:50:12;;;;;;;;;;;;;;;26.62;65.01;97033.92;1745185;82;20099;-77
2021/06/26 04:52:42;;;;;;;;;;;;;;;27.35;57.44;97050.20;1732630;82;20184;-77
2021/06/26 04:55:09;;;;;;;;;;;;;;;27.94;63.86;97052.98;1699451;82;20104;-77
2021/06/26 04:57:35;;;;;;;;;;;;;;;28.29;56.13;97051.34;1715805;84;20149;-77
2021/06/26 05:00:04;;;;;;;;;;;;;;;28.77;57.73;97039.86;1716032;84;20097;-77
2021/06/26 05:02:30;;;;;;;;;;;;;;;29.30;51.76;97041.35;1688494;83;20418;-76
2021/06/26 05:04:56;;;;;;;;;;;;;;;29.87;50.59;97028.70;1687247;85;20112;-77
2021/06/26 05:07:23;;;;;;;;;;;;;;;30.15;68.07;97032.92;1705563;82;20093;-77
2021/06/26 05:09:49;;;;;;;;;;;;;;;29.89;58.09;97034.70;1715876;83;20102;-76
2021/06/26 05:12:15;;;;;;;;;;;;;;;29.50;53.84;97033.30;1735329;82;20412;-77
2021/06/26 05:14:41;;;;;;;;;;;;;;;29.06;54.55;97031.16;1731236;82;20467;-75
2021/06/26 05:17:07;;;;;;;;;;;;;;;28.30;53.79;97031.31;1715792;84;20427;-78
2021/06/26 05:19:33;;;;;;;;;;;;;;;27.83;51.68;97041.11;1717283;82;20104;-77
2021/06/26 05:21:59;;;;;;;;;;;;;;;27.43;51.97;97029.05;1715897;83;20195;-77
2021/06/26 05:24:25;;;;;;;;;;;;;;;27.50;52.97;97022.73;1696672;83;20124;-77
2021/06/26 05:26:51;;;;;;;;;;;;;;;27.93;49.62;97017.48;1702169;82;20115;-77
2021/06/26 05:29:17;;;;;;;;;;;;;;;28.30;54.14;97015.87;1688273;83;20111;-77
2021/06/26 05:31:44;;;;;;;;;;;;;;;28.51;46.27;97012.22;1707614;82;20378;-76
2021/06/26 05:34:10;;;;;;;;;;;;;;;29.18;47.17;97011.29;1745157;82;20408;-76
2021/06/26 05:36:36;;;;;;;;;;;;;;;29.82;50.97;97008.27;1717875;82;20443;-79
2021/06/26 05:39:04;;;;;;;;;;;;;;;30.57;45.40;97001.66;1741722;82;20381;-79
2021/06/26 05:41:30;;;;;;;;;;;;;;;31.42;43.05;96986.96;1745981;82;20171;-79
2021/06/26 05:43:56;;;;;;;;;;;;;;;32.04;44.53;96983.31;1745152;82;20103;-77
2021/06/26 05:46:22;;;;;;;;;;;;;;;32.70;38.04;96983.31;1745444;82;20103;-78
2021/06/26 05:48:48;;;;;;;;;;;;;;;33.35;41.77;96984.78;1745380;82;20091;-79
2021/06/26 05:51:17;;;;;;;;;;;;;;;33.72;37.70;96980.91;1745148;82;20588;-77
2021/06/26 05:53:43;;;;;;;;;;;;;;;33.99;37.34;96983.88;1745443;82;20388;-78
2021/06/26 05:56:10;;;;;;;;;;;;;;;34.57;58.41;96982.59;1729157;82;20097;-78
2021/06/26 05:58:38;;;;;;;;;;;;;;;34.66;39.80;96986.93;1715991;83;20121;-77
2021/06/26 06:01:06;;;;;;;;;;;;;;;35.07;53.55;96986.67;1717049;82;20101;-77
2021/06/26 06:03:35;;;;;;;;;;;;;;;33.93;42.42;96991.28;1715587;82;20098;-75
2021/06/26 06:06:01;;;;;;;;;;;;;;;33.39;34.96;96986.41;1716065;83;20125;-76
2021/06/26 06:08:27;;;;;;;;;;;;;;;33.63;54.70;96991.60;1716271;83;20097;-77
2021/06/26 06:10:54;;;;;;;;;;;;;;;33.40;38.47;96988.05;1733845;82;20135;-80
2021/06/26 06:13:22;;;;;;;;;;;;;;;33.40;38.30;96986.16;1740924;82;20137;-77
2021/06/26 06:15:49;;;;;;;;;;;;;;;33.98;36.84;96984.17;1715729;82;20129;-77
2021/06/26 06:18:17;;;;;;;;;;;;;;;34.54;38.99;96981.77;1716290;84;20145;-76
2021/06/26 06:20:44;;;;;;;;;;;;;;;35.10;34.29;96982.01;1715838;84;20110;-79
2021/06/26 06:23:12;;;;;;;;;;;;;;;35.64;35.21;96988.97;1715829;84;20179;-76
2021/06/26 06:25:38;;;;;;;;;;;;;;;36.20;34.82;96988.13;1715946;84;20125;-77
2021/06/26 06:28:05;;;;;;;;;;;;;;;36.70;46.56;96984.50;1715953;83;20097;-77
2021/06/26 06:30:32;;;;;;;;;;;;;;;36.94;35.50;96986.36;1716013;84;20118;-77
2021/06/26 06:32:59;;;;;;;;;;;;;;;37.13;30.25;96986.91;1716330;82;20099;-76
2021/06/26 06:35:26;;;;;;;;;;;;;;;37.40;29.67;96991.69;1715780;83;20406;-77
2021/06/26 06:37:53;;;;;;;;;;;;;;;37.74;29.11;96997.98;1715930;83;20146;-76
2021/06/26 06:40:19;;;;;;;;;;;;;;;37.90;30.97;96988.38;1729212;82;20131;-77
2021/06/26 06:42:45;;;;;;;;;;;;;;;38.22;53.32;96992.14;1745320;82;20388;-77
2021/06/26 06:45:13;;;;;;;;;;;;;;;38.17;28.84;96986.76;1745306;82;20130;-77
2021/06/26 06:47:39;;;;;;;;;;;;;;;38.27;46.51;96983.80;1745482;82;20160;-77
2021/06/26 06:50:08;;;;;;;;;;;;;;;37.74;39.00;96982.31;1745304;82;20103;-77
2021/06/26 06:52:34;;;;;;;;;;;;;;;37.33;29.09;96980.25;1730553;82;20095;-76
2021/06/26 06:55:00;;;;;;;;;;;;;;;37.47;32.27;96973.45;1745476;82;20108;-75
2021/06/26 06:57:26;;;;;;;;;;;;;;;37.66;29.83;96971.45;1745340;82;20384;-77
2021/06/26 06:59:53;;;;;;;;;;;;;;;37.96;30.29;96967.07;1745444;82;20431;-79
2021/06/26 07:02:20;;;;;;;;;;;;;;;38.23;28.64;96969.02;1743086;82;20423;-77
2021/06/26 07:04:47;;;;;;;;;;;;;;;38.51;27.29;96969.00;1745254;82;20408;-78
2021/06/26 07:07:14;;;;;;;;;;;;;;;38.66;27.37;96961.52;1745424;82;20116;-78
2021/06/26 07:09:40;;;;;;;;;;;;;;;38.70;33.31;96964.72;1722713;82;20406;-80
2021/06/26 07:12:09;;;;;;;;;;;;;;;38.85;32.51;96963.58;1721854;82;20387;-76
2021/06/26 07:14:35;;;;;;;;;;;;;;;38.86;47.45;96961.08;1728235;82;20131;-78
2021/06/26 07:17:01;;;;;;;;;;;;;;;38.37;27.61;96964.09;1745445;82;20091;-77
2021/06/26 07:19:27;;;;;;;;;;;;;;;38.25;28.63;96968.15;1745242;81;20412;-77
2021/06/26 07:21:53;;;;;;;;;;;;;;;38.35;26.82;96971.84;1745310;82;20135;-77
2021/06/26 07:24:19;;;;;;;;;;;;;;;38.35;30.15;96969.89;1728695;82;20103;-74
2021/06/26 07:26:46;;;;;;;;;;;;;;;38.38;35.02;96970.66;1717976;82;20105;-74
2021/06/26 07:29:12;;;;;;;;;;;;;;;38.38;27.31;96975.34;1713684;84;20098;-78
2021/06/26 07:31:38;;;;;;;;;;;;;;;38.53;31.32;96974.19;1703308;83;20423;-78
2021/06/26 07:34:05;;;;;;;;;;;;;;;38.61;30.42;96975.41;1708738;83;20217;-80
2021/06/26 07:36:31;;;;;;;;;;;;;;;38.52;29.87;96977.52;1700662;84;20125;-80
2021/06/26 07:38:57;;;;;;;;;;;;;;;38.57;26.90;96972.47;1707930;82;20120;-79
2021/06/26 07:41:23;;;;;;;;;;;;;;;38.66;28.31;96971.15;1659371;85;20100;-77
2021/06/26 07:43:50;;;;;;;;;;;;;;;38.69;30.76;96970.00;1695042;84;20141;-76
2021/06/26 07:46:18;;;;;;;;;;;;;;;38.08;38.55;96972.09;1715108;83;20106;-77
2021/06/26 07:48:45;;;;;;;;;;;;;;;37.49;30.99;96978.09;1705699;83;20147;-80
2021/06/26 07:51:12;;;;;;;;;;;;;;;37.42;31.88;96971.61;1686942;84;20159;-78
2021/06/26 07:53:38;;;;;;;;;;;;;;;37.48;34.19;96977.83;1688775;84;20100;-76
2021/06/26 07:56:05;;;;;;;;;;;;;;;37.45;35.60;96982.55;1705387;84;20100;-81
2021/06/26 07:58:31;;;;;;;;;;;;;;;37.49;63.46;96986.34;1690091;82;20590;-78
2021/06/26 08:00:58;;;;;;;;;;;;;;;37.13;31.69;96975.34;1711717;84;20399;-77
2021/06/26 08:03:25;;;;;;;;;;;;;;;37.18;26.56;96976.66;1712345;82;20390;-76
2021/06/26 08:05:53;;;;;;;;;;;;;;;37.17;25.86;96985.17;1713725;82;20150;-78
2021/06/26 08:08:21;;;;;;;;;;;;;;;36.79;35.97;96981.88;1710877;83;20149;-78
2021/06/26 08:10:50;;;;;;;;;;;;;;;36.42;38.04;96971.14;1714979;84;20122;-79
2021/06/26 08:13:16;;;;;;;;;;;;;;;36.47;56.00;96974.38;1700033;83;20424;-78
2021/06/26 08:15:45;;;;;;;;;;;;;;;36.56;57.16;96983.04;1665263;84;20100;-76
2021/06/26 08:18:13;;;;;;;;;;;;;;;36.38;53.19;96981.06;1692433;84;20430;-78
2021/06/26 08:20:40;;;;;;;;;;;;;;;36.08;53.91;96985.23;1677721;84;20396;-77
2021/06/26 08:23:06;;;;;;;;;;;;;;;35.78;40.51;96981.69;1668791;84;20431;-79
2021/06/26 08:25:32;;;;;;;;;;;;;;;35.17;54.47;96984.42;1714075;83;20412;-79
2021/06/26 08:27:58;;;;;;;;;;;;;;;34.63;41.27;96985.55;1667575;83;20100;-78
2021/06/26 08:30:25;;;;;;;;;;;;;;;33.73;44.85;96984.48;1665116;86;20111;-79
2021/06/26 08:32:53;;;;;;;;;;;;;;;32.70;37.52;96986.56;1709525;83;20113;-75
2021/06/26 08:35:19;;;;;;;;;;;;;;;32.62;57.09;96980.27;1712613;83;20132;-79
2021/06/26 08:37:48;;;;;;;;;;;;;;;32.52;45.13;96981.08;1714846;83;20097;-78
2021/06/26 08:40:15;;;;;;;;;;;;;;;31.99;37.21;96971.56;1715132;83;20098;-78
2021/06/26 08:42:41;;;;;;;;;;;;;;;31.07;37.78;96969.23;1714880;83;20203;-81
2021/06/26 08:45:10;;;;;;;;;;;;;;;30.75;36.54;96965.96;1707442;83;20104;-78
2021/06/26 08:47:37;;;;;;;;;;;;;;;30.75;42.66;96970.05;1704787;82;20399;-78
2021/06/26 08:50:05;;;;;;;;;;;;;;;30.79;38.89;96956.75;1704559;84;20431;-78
2021/06/26 08:52:32;;;;;;;;;;;;;;;31.10;51.90;96960.59;1714960;84;20106;-80
2021/06/26 08:54:58;;;;;;;;;;;;;;;31.27;48.06;96952.82;1706989;84;20162;-78
2021/06/26 08:57:36;;;;;;;;;;;;;;;31.00;42.33;96962.64;1697495;84;20162;-81
2021/06/26 09:00:06;;;;;;;;;;;;;;;30.51;37.11;96961.33;1672352;84;20107;-77
2021/06/26 09:02:32;;;;;;;;;;;;;;;30.20;36.91;96960.96;1673298;84;20714;-78
2021/06/26 09:04:59;;;;;;;;;;;;;;;30.38;39.80;96962.55;1695524;84;20101;-77
2021/06/26 09:07:31;;;;;;;;;;;;;;;30.67;42.78;96960.98;1681849;83;20111;-80
2021/06/26 09:09:58;;;;;;;;;;;;;;;30.82;34.37;96958.41;1672589;85;20111;-78
2021/06/26 09:12:29;;;;;;;;;;;;;;;30.82;36.98;96954.33;1702649;83;20204;-76
2021/06/26 09:14:53;;;;;;;;;;;;;;;30.32;35.84;96956.22;1708044;83;20106;-79
2021/06/26 09:17:31;;;;;;;;;;;;;;;30.18;36.89;96955.79;1716084;83;20094;-78
2021/06/26 09:20:03;;;;;;;;;;;;;;;30.27;38.52;96963.49;1712499;83;20125;-79
2021/06/26 09:22:45;;;;;;;;;;;;;;;29.78;35.74;96940.56;1703818;84;20160;-79
2021/06/26 09:25:34;;;;;;;;;;;;;;;29.84;36.88;96944.98;1704061;84;20455;-77
2021/06/26 09:28:03;;;;;;;;;;;;;;;29.94;36.31;96949.78;1700269;84;20445;-80
2021/06/26 09:30:40;;;;;;;;;;;;;;;29.98;37.31;96940.59;1712843;83;20410;-78
2021/06/26 09:33:17;;;;;;;;;;;;;;;30.04;37.32;96939.56;1715416;84;20101;-78
2021/06/26 09:35:45;;;;;;;;;;;;;;;30.15;40.70;96941.34;1708274;84;20120;-77
2021/06/26 09:38:14;;;;;;;;;;;;;;;30.30;39.17;96945.33;1714764;84;20394;-80
2021/06/26 09:40:42;;;;;;;;;;;;;;;30.29;37.64;96952.64;1706291;84;20107;-78
2021/06/26 09:43:09;;;;;;;;;;;;;;;30.03;36.62;96946.07;1707755;82;20137;-78
2021/06/26 09:45:35;;;;;;;;;;;;;;;30.03;37.87;96950.14;1700852;83;20112;-77
2021/06/26 09:48:06;;;;;;;;;;;;;;;29.78;36.23;96943.28;1688480;84;20426;-77
2021/06/26 09:50:35;;;;;;;;;;;;;;;29.50;38.23;96952.41;1688434;84;20106;-75
2021/06/26 09:53:04;;;;;;;;;;;;;;;29.59;39.86;96944.93;1688329;84;20389;-78
2021/06/26 09:55:36;;;;;;;;;;;;;;;29.55;38.26;96947.88;1706042;82;20387;-76
2021/06/26 09:58:07;;;;;;;;;;;;;;;29.45;39.64;96949.88;1712446;84;20118;-76
2021/06/26 10:00:34;;;;;;;;;;;;;;;29.49;39.15;96952.11;1714988;84;20390;-78
2021/06/26 10:03:00;;;;;;;;;;;;;;;29.49;38.58;96943.97;1689418;84;20100;-77
2021/06/26 10:05:27;;;;;;;;;;;;;;;29.30;37.44;96946.36;1688574;84;20088;-78
2021/06/26 10:07:53;;;;;;;;;;;;;;;28.97;38.92;96938.53;1701504;84;20133;-78
2021/06/26 10:10:23;;;;;;;;;;;;;;;28.95;39.93;96939.84;1701364;82;20449;-77
2021/06/26 10:12:51;;;;;;;;;;;;;;;29.03;39.71;96946.73;1702852;84;20271;-78
2021/06/26 10:15:19;;;;;;;;;;;;;;;29.12;39.92;96949.33;1720219;82;20103;-77
2021/06/26 10:17:45;;;;;;;;;;;;;;;29.21;41.67;96953.28;1744477;82;20214;-78
2021/06/26 10:20:14;;;;;;;;;;;;;;;29.05;39.36;96948.67;1743888;81;20123;-78
2021/06/26 10:22:47;;;;;;;;;;;;;;;28.74;39.95;96947.63;1744539;81;20147;-78
2021/06/26 10:25:13;;;;;;;;;;;;;;;28.51;40.72;96945.27;1707958;84;20155;-75
2021/06/26 10:27:39;;;;;;;;;;;;;;;28.47;40.23;96945.48;1715096;83;20118;-77
2021/06/26 10:30:17;;;;;;;;;;;;;;;28.54;40.75;96948.56;1704001;82;20095;-76
2021/06/26 10:32:57;;;;;;;;;;;;;;;28.44;40.14;96955.44;1706822;82;20390;-76
2021/06/26 10:35:25;;;;;;;;;;;;;;;28.59;41.34;96968.46;1714647;82;20098;-77
2021/06/26 10:38:09;;;;;;;;;;;;;;;28.70;40.21;96963.23;1745399;82;20179;-77
2021/06/26 10:40:37;;;;;;;;;;;;;;;28.82;39.63;96957.23;1734409;82;20220;-76
2021/06/26 10:43:24;;;;;;;;;;;;;;;29.01;40.81;96956.48;1706061;84;20110;-78
2021/06/26 10:45:53;;;;;;;;;;;;;;;29.21;41.12;96954.63;1707509;83;20105;-78
2021/06/26 10:48:22;;;;;;;;;;;;;;;29.42;39.55;96963.13;1708976;84;20106;-76
2021/06/26 10:50:50;;;;;;;;;;;;;;;29.30;40.77;96956.41;1712596;83;20137;-77
2021/06/26 10:53:29;;;;;;;;;;;;;;;29.23;40.00;96959.83;1719559;83;20144;-78
2021/06/26 10:56:07;;;;;;;;;;;;;;;29.18;39.03;96959.73;1724562;82;20447;-78
2021/06/26 10:58:39;;;;;;;;;;;;;;;28.98;38.59;96956.97;1715996;84;20117;-79
2021/06/26 11:01:21;;;;;;;;;;;;;;;28.62;40.37;96955.79;1714277;82;20109;-77
2021/06/26 11:03:53;;;;;;;;;;;;;;;28.80;40.13;96954.77;1714189;83;20098;-76
2021/06/26 11:06:27;;;;;;;;;;;;;;;29.14;40.63;96955.34;1708052;83;20157;-77
2021/06/26 11:09:10;;;;;;;;;;;;;;;29.21;38.91;96957.34;1714207;84;20105;-77
2021/06/26 11:11:43;;;;;;;;;;;;;;;28.98;38.25;96948.31;1712439;84;20101;-77
2021/06/26 11:14:19;;;;;;;;;;;;;;;29.07;39.39;96943.83;1729102;82;20173;-78
2021/06/26 11:16:55;;;;;;;;;;;;;;;29.11;38.89;96949.88;1713680;83;20108;-77
2021/06/26 11:19:32;;;;;;;;;;;;;;;28.89;38.40;96925.38;1735439;82;20477;-78
2021/06/26 11:21:59;;;;;;;;;;;;;;;28.77;39.10;96941.69;1714360;84;20402;-78
2021/06/26 11:24:40;;;;;;;;;;;;;;;28.60;39.31;96947.59;1701630;84;20090;-76
2021/06/26 11:27:08;;;;;;;;;;;;;;;28.47;39.73;96952.77;1715800;83;20149;-79
2021/06/26 11:29:37;;;;;;;;;;;;;;;28.30;39.56;96958.96;1716457;82;20101;-78
2021/06/26 11:32:22;;;;;;;;;;;;;;;28.00;40.08;96953.17;1709501;84;20134;-77
2021/06/26 11:34:55;;;;;;;;;;;;;;;27.81;40.72;96953.88;1704362;83;20098;-79
2021/06/26 11:37:22;;;;;;;;;;;;;;;27.63;40.86;96945.34;1705813;83;20086;-77
2021/06/26 11:39:49;;;;;;;;;;;;;;;27.54;41.50;96945.41;1702733;84;20126;-78
2021/06/26 11:42:17;;;;;;;;;;;;;;;27.61;41.81;96947.45;1673157;84;20115;-78
2021/06/26 11:44:44;;;;;;;;;;;;;;;27.63;41.84;96949.40;1660947;86;20092;-76
2021/06/26 11:47:10;;;;;;;;;;;;;;;27.53;42.33;96947.30;1692600;84;20110;-80
2021/06/26 11:49:42;;;;;;;;;;;;;;;27.38;42.88;96945.55;1706018;84;20168;-77
2021/06/26 11:52:11;;;;;;;;;;;;;;;27.37;43.31;96953.39;1705046;84;20130;-78
2021/06/26 11:54:37;;;;;;;;;;;;;;;27.35;43.48;96951.45;1706042;84;20098;-78
2021/06/26 11:57:06;;;;;;;;;;;;;;;27.26;43.72;96948.25;1703890;84;20094;-77
2021/06/26 11:59:44;;;;;;;;;;;;;;;27.29;43.60;96949.14;1685284;83;20119;-78
2021/06/26 12:02:11;;;;;;;;;;;;;;;27.16;44.16;96936.67;1660199;87;20096;-77
2021/06/26 12:04:38;;;;;;;;;;;;;;;27.13;44.36;96930.37;1699775;83;20121;-78
2021/06/26 12:07:09;;;;;;;;;;;;;;;27.04;44.17;96927.20;1706257;83;20110;-78
2021/06/26 12:09:40;;;;;;;;;;;;;;;26.86;44.71;96915.12;1705942;84;20109;-77
2021/06/26 12:12:07;;;;;;;;;;;;;;;26.79;44.98;96923.33;1704864;84;20387;-78
2021/06/26 12:14:34;;;;;;;;;;;;;;;26.64;45.61;96924.53;1706005;84;20129;-76
2021/06/26 12:17:06;;;;;;;;;;;;;;;26.52;46.00;96911.53;1691534;84;20126;-79
2021/06/26 12:19:33;;;;;;;;;;;;;;;26.43;46.01;96921.02;1687060;84;20242;-76
2021/06/26 12:22:00;;;;;;;;;;;;;;;26.26;46.37;96927.56;1688078;84;20411;-75
2021/06/26 12:24:35;;;;;;;;;;;;;;;26.15;46.62;96936.73;1687966;84;20444;-77
2021/06/26 12:27:10;;;;;;;;;;;;;;;26.05;46.75;96929.66;1688122;84;20171;-75
2021/06/26 12:29:37;;;;;;;;;;;;;;;26.03;47.14;96931.25;1687989;84;20102;-78
2021/06/26 12:32:05;;;;;;;;;;;;;;;25.92;47.93;96940.63;1688229;84;20106;-78
2021/06/26 12:34:31;;;;;;;;;;;;;;;25.92;48.65;96947.38;1688281;84;20114;-78
2021/06/26 12:36:59;;;;;;;;;;;;;;;25.83;49.00;96950.89;1688198;84;20122;-76
2021/06/26 12:39:32;;;;;;;;;;;;;;;25.81;49.76;96946.23;1686738;84;20101;-77
2021/06/26 12:42:00;;;;;;;;;;;;;;;25.67;50.61;96942.86;1677513;85;20108;-78
2021/06/26 12:44:26;;;;;;;;;;;;;;;25.37;52.66;96920.63;1677568;85;20207;-78
2021/06/26 12:46:52;;;;;;;;;;;;;;;25.14;51.69;96923.41;1677778;85;20163;-78
2021/06/26 12:49:21;;;;;;;;;;;;;;;25.12;52.89;96917.95;1677719;86;20668;-76
2021/06/26 12:51:49;;;;;;;;;;;;;;;25.18;51.98;96909.81;1678476;85;20396;-80